Terminal Aerodrome Forecast
Issued by NWS Denver/Boulder, CO

Home | Current Version | Previous Version | Text Only | Print | Product List | Glossary On
Versions: 1 2 3 4 5 6 7 8 9 10 11 12 13 14 15 16 17 18 19 20 21 22 23 24 25 26 27 28 29 30 31 32 33 34 35 36 37 38 39 40 41 42 43 44 45 46 47 48 49 50
000
FTUS45 KBOU 011924 AAA
TAFDEN
TAF AMD
KDEN 011924Z 0119/0224 34008KT P6SM -SN SCT025 OVC035
     FM012100 03010KT P6SM VCSH SCT030 BKN040 OVC050
     FM020200 06007KT P6SM SCT015 SCT030 BKN060
     FM020400 18005KT P6SM SCT030 BKN100
     FM020800 24005KT P6SM SCT060 SCT100
     FM021000 21005KT P6SM VCFG FEW010 FEW100
     FM021400 12006KT P6SM FEW100 SCT180=

USA.gov is the U.S. government's official web portal to all federal, state and local government web resources and services.